sensor_id;sensor_type;location;lat;lon;timestamp;P1;durP1;ratioP1;P2;durP2;ratioP2
27822;SDS011;29019;47.630;8.262;2024-01-06T00:02:20;64.20;;;22.15;;
27822;SDS011;29019;47.630;8.262;2024-01-06T00:06:20;58.80;;;20.02;;
27822;SDS011;29019;47.630;8.262;2024-01-06T00:10:21;58.10;;;19.70;;
27822;SDS011;29019;47.630;8.262;2024-01-06T00:14:22;76.00;;;23.02;;
27822;SDS011;29019;47.630;8.262;2024-01-06T00:18:22;60.50;;;20.92;;
27822;SDS011;29019;47.630;8.262;2024-01-06T00:22:23;59.47;;;21.40;;
27822;SDS011;29019;47.630;8.262;2024-01-06T00:26:24;58.97;;;21.08;;
27822;SDS011;29019;47.630;8.262;2024-01-06T00:30:24;56.13;;;19.75;;
27822;SDS011;29019;47.630;8.262;2024-01-06T00:34:25;63.20;;;20.83;;
27822;SDS011;29019;47.630;8.262;2024-01-06T00:38:26;60.33;;;19.48;;
27822;SDS011;29019;47.630;8.262;2024-01-06T00:42:27;50.33;;;19.98;;
27822;SDS011;29019;47.630;8.262;2024-01-06T00:46:27;64.10;;;21.00;;
27822;SDS011;29019;47.630;8.262;2024-01-06T00:50:28;47.15;;;18.30;;
27822;SDS011;29019;47.630;8.262;2024-01-06T00:54:29;51.30;;;17.95;;
27822;SDS011;29019;47.630;8.262;2024-01-06T00:58:29;51.85;;;16.85;;
27822;SDS011;29019;47.630;8.262;2024-01-06T01:02:30;51.00;;;18.45;;
27822;SDS011;29019;47.630;8.262;2024-01-06T01:06:31;56.08;;;17.95;;
27822;SDS011;29019;47.630;8.262;2024-01-06T01:10:31;53.28;;;17.85;;
27822;SDS011;29019;47.630;8.262;2024-01-06T01:14:32;46.55;;;16.90;;
27822;SDS011;29019;47.630;8.262;2024-01-06T01:18:33;50.67;;;17.25;;
27822;SDS011;29019;47.630;8.262;2024-01-06T01:22:33;47.90;;;16.50;;
27822;SDS011;29019;47.630;8.262;2024-01-06T01:26:35;45.67;;;14.98;;
27822;SDS011;29019;47.630;8.262;2024-01-06T01:30:36;46.15;;;15.15;;
27822;SDS011;29019;47.630;8.262;2024-01-06T01:34:36;47.05;;;16.05;;
27822;SDS011;29019;47.630;8.262;2024-01-06T01:38:37;40.03;;;15.07;;
27822;SDS011;29019;47.630;8.262;2024-01-06T01:42:38;38.08;;;15.27;;
27822;SDS011;29019;47.630;8.262;2024-01-06T01:46:39;37.17;;;13.52;;
27822;SDS011;29019;47.630;8.262;2024-01-06T01:50:40;43.05;;;13.65;;
27822;SDS011;29019;47.630;8.262;2024-01-06T01:54:40;37.58;;;14.13;;
27822;SDS011;29019;47.630;8.262;2024-01-06T01:58:43;35.05;;;12.70;;
27822;SDS011;29019;47.630;8.262;2024-01-06T02:02:43;32.60;;;13.23;;
27822;SDS011;29019;47.630;8.262;2024-01-06T02:06:44;35.72;;;12.95;;
27822;SDS011;29019;47.630;8.262;2024-01-06T02:10:45;39.40;;;12.88;;
27822;SDS011;29019;47.630;8.262;2024-01-06T02:14:46;35.40;;;13.52;;
27822;SDS011;29019;47.630;8.262;2024-01-06T02:18:46;44.10;;;13.23;;
27822;SDS011;29019;47.630;8.262;2024-01-06T02:22:47;38.00;;;13.60;;
27822;SDS011;29019;47.630;8.262;2024-01-06T02:26:48;43.60;;;13.95;;
27822;SDS011;29019;47.630;8.262;2024-01-06T02:30:49;34.80;;;12.38;;
27822;SDS011;29019;47.630;8.262;2024-01-06T02:34:50;47.67;;;12.82;;
27822;SDS011;29019;47.630;8.262;2024-01-06T02:38:50;28.10;;;11.07;;
27822;SDS011;29019;47.630;8.262;2024-01-06T02:42:51;34.60;;;11.75;;
27822;SDS011;29019;47.630;8.262;2024-01-06T02:46:52;34.97;;;11.30;;
27822;SDS011;29019;47.630;8.262;2024-01-06T02:50:54;29.00;;;10.50;;
27822;SDS011;29019;47.630;8.262;2024-01-06T02:54:55;26.73;;;10.35;;
27822;SDS011;29019;47.630;8.262;2024-01-06T02:58:55;32.55;;;10.80;;
27822;SDS011;29019;47.630;8.262;2024-01-06T03:02:56;27.13;;;10.80;;
27822;SDS011;29019;47.630;8.262;2024-01-06T03:06:57;26.17;;;10.10;;
27822;SDS011;29019;47.630;8.262;2024-01-06T03:10:58;21.50;;;9.23;;
27822;SDS011;29019;47.630;8.262;2024-01-06T03:18:59;19.47;;;8.53;;
27822;SDS011;29019;47.630;8.262;2024-01-06T03:23:00;27.27;;;9.70;;
27822;SDS011;29019;47.630;8.262;2024-01-06T03:27:00;25.73;;;9.43;;
27822;SDS011;29019;47.630;8.262;2024-01-06T03:31:01;24.30;;;10.50;;
27822;SDS011;29019;47.630;8.262;2024-01-06T03:35:02;28.55;;;10.70;;
27822;SDS011;29019;47.630;8.262;2024-01-06T03:39:03;29.40;;;9.95;;
27822;SDS011;29019;47.630;8.262;2024-01-06T03:43:04;24.85;;;9.32;;
27822;SDS011;29019;47.630;8.262;2024-01-06T03:47:04;20.23;;;8.82;;
27822;SDS011;29019;47.630;8.262;2024-01-06T03:51:06;18.88;;;9.00;;
27822;SDS011;29019;47.630;8.262;2024-01-06T03:55:07;18.38;;;7.97;;
27822;SDS011;29019;47.630;8.262;2024-01-06T03:59:08;22.40;;;8.95;;
27822;SDS011;29019;47.630;8.262;2024-01-06T04:03:09;18.20;;;7.75;;
27822;SDS011;29019;47.630;8.262;2024-01-06T04:07:10;24.33;;;8.15;;
27822;SDS011;29019;47.630;8.262;2024-01-06T04:11:11;17.83;;;8.10;;
27822;SDS011;29019;47.630;8.262;2024-01-06T04:15:11;17.17;;;7.57;;
27822;SDS011;29019;47.630;8.262;2024-01-06T04:19:12;19.23;;;7.90;;
27822;SDS011;29019;47.630;8.262;2024-01-06T04:27:14;20.97;;;7.33;;
27822;SDS011;29019;47.630;8.262;2024-01-06T04:31:14;16.48;;;6.75;;
27822;SDS011;29019;47.630;8.262;2024-01-06T04:35:15;15.90;;;7.43;;
27822;SDS011;29019;47.630;8.262;2024-01-06T04:39:16;17.25;;;7.85;;
27822;SDS011;29019;47.630;8.262;2024-01-06T04:43:17;17.48;;;7.15;;
27822;SDS011;29019;47.630;8.262;2024-01-06T04:47:17;17.50;;;7.68;;
27822;SDS011;29019;47.630;8.262;2024-01-06T04:51:18;22.23;;;8.00;;
27822;SDS011;29019;47.630;8.262;2024-01-06T04:55:19;16.73;;;6.95;;
27822;SDS011;29019;47.630;8.262;2024-01-06T04:59:20;19.38;;;8.15;;
27822;SDS011;29019;47.630;8.262;2024-01-06T05:03:20;18.58;;;8.27;;
27822;SDS011;29019;47.630;8.262;2024-01-06T05:07:21;18.30;;;6.70;;
27822;SDS011;29019;47.630;8.262;2024-01-06T05:11:22;15.77;;;6.75;;
27822;SDS011;29019;47.630;8.262;2024-01-06T05:15:22;15.85;;;6.40;;
27822;SDS011;29019;47.630;8.262;2024-01-06T05:19:23;16.85;;;6.13;;
27822;SDS011;29019;47.630;8.262;2024-01-06T05:23:24;20.35;;;6.53;;
27822;SDS011;29019;47.630;8.262;2024-01-06T05:27:24;20.00;;;8.10;;
27822;SDS011;29019;47.630;8.262;2024-01-06T05:31:25;17.20;;;7.80;;
27822;SDS011;29019;47.630;8.262;2024-01-06T05:35:26;16.35;;;6.63;;
27822;SDS011;29019;47.630;8.262;2024-01-06T05:39:27;18.73;;;6.25;;
27822;SDS011;29019;47.630;8.262;2024-01-06T05:43:27;15.32;;;5.78;;
27822;SDS011;29019;47.630;8.262;2024-01-06T05:47:28;17.75;;;5.80;;
27822;SDS011;29019;47.630;8.262;2024-01-06T05:51:30;15.63;;;6.15;;
27822;SDS011;29019;47.630;8.262;2024-01-06T05:55:32;16.92;;;5.90;;
27822;SDS011;29019;47.630;8.262;2024-01-06T05:59:33;13.55;;;5.90;;
27822;SDS011;29019;47.630;8.262;2024-01-06T06:03:33;12.65;;;6.57;;
27822;SDS011;29019;47.630;8.262;2024-01-06T06:07:34;15.00;;;5.82;;
27822;SDS011;29019;47.630;8.262;2024-01-06T06:11:38;11.63;;;5.35;;
27822;SDS011;29019;47.630;8.262;2024-01-06T06:15:39;10.93;;;4.85;;
27822;SDS011;29019;47.630;8.262;2024-01-06T06:19:40;11.70;;;5.13;;
27822;SDS011;29019;47.630;8.262;2024-01-06T06:23:40;12.13;;;5.10;;
27822;SDS011;29019;47.630;8.262;2024-01-06T06:27:41;16.40;;;5.30;;
27822;SDS011;29019;47.630;8.262;2024-01-06T06:31:42;11.60;;;5.45;;
27822;SDS011;29019;47.630;8.262;2024-01-06T06:35:46;10.77;;;4.90;;
27822;SDS011;29019;47.630;8.262;2024-01-06T06:39:47;9.70;;;4.63;;
27822;SDS011;29019;47.630;8.262;2024-01-06T06:43:48;13.52;;;4.93;;
27822;SDS011;29019;47.630;8.262;2024-01-06T06:47:49;9.98;;;5.00;;
27822;SDS011;29019;47.630;8.262;2024-01-06T06:51:52;10.20;;;4.88;;
27822;SDS011;29019;47.630;8.262;2024-01-06T06:55:52;10.77;;;5.22;;
27822;SDS011;29019;47.630;8.262;2024-01-06T06:59:53;11.55;;;4.78;;
27822;SDS011;29019;47.630;8.262;2024-01-06T07:03:54;11.00;;;4.80;;
27822;SDS011;29019;47.630;8.262;2024-01-06T07:07:55;10.63;;;4.95;;
27822;SDS011;29019;47.630;8.262;2024-01-06T07:11:55;9.05;;;4.22;;
27822;SDS011;29019;47.630;8.262;2024-01-06T07:15:57;9.55;;;5.18;;
27822;SDS011;29019;47.630;8.262;2024-01-06T07:19:58;8.27;;;4.20;;
27822;SDS011;29019;47.630;8.262;2024-01-06T07:23:59;8.80;;;4.25;;
27822;SDS011;29019;47.630;8.262;2024-01-06T07:28:01;8.95;;;4.05;;
27822;SDS011;29019;47.630;8.262;2024-01-06T07:32:02;10.15;;;5.00;;
27822;SDS011;29019;47.630;8.262;2024-01-06T07:40:04;8.45;;;4.10;;
27822;SDS011;29019;47.630;8.262;2024-01-06T07:44:05;8.80;;;4.18;;
27822;SDS011;29019;47.630;8.262;2024-01-06T07:48:06;9.52;;;4.05;;
27822;SDS011;29019;47.630;8.262;2024-01-06T07:52:07;9.23;;;4.78;;
27822;SDS011;29019;47.630;8.262;2024-01-06T07:56:08;8.30;;;3.60;;
27822;SDS011;29019;47.630;8.262;2024-01-06T08:00:08;8.93;;;3.83;;
27822;SDS011;29019;47.630;8.262;2024-01-06T08:04:10;7.15;;;3.80;;
27822;SDS011;29019;47.630;8.262;2024-01-06T08:08:10;6.88;;;3.92;;
27822;SDS011;29019;47.630;8.262;2024-01-06T08:12:13;9.52;;;4.05;;
27822;SDS011;29019;47.630;8.262;2024-01-06T08:16:14;7.60;;;3.28;;
27822;SDS011;29019;47.630;8.262;2024-01-06T08:20:15;5.63;;;3.30;;
27822;SDS011;29019;47.630;8.262;2024-01-06T08:24:16;7.38;;;3.38;;
27822;SDS011;29019;47.630;8.262;2024-01-06T08:28:17;6.32;;;3.58;;
27822;SDS011;29019;47.630;8.262;2024-01-06T08:32:18;7.45;;;3.60;;
27822;SDS011;29019;47.630;8.262;2024-01-06T08:36:19;8.00;;;3.75;;
27822;SDS011;29019;47.630;8.262;2024-01-06T08:40:20;6.72;;;3.45;;
27822;SDS011;29019;47.630;8.262;2024-01-06T08:44:20;8.93;;;3.70;;
27822;SDS011;29019;47.630;8.262;2024-01-06T08:48:21;6.07;;;3.30;;
27822;SDS011;29019;47.630;8.262;2024-01-06T08:52:22;6.32;;;3.55;;
27822;SDS011;29019;47.630;8.262;2024-01-06T08:56:23;7.10;;;3.05;;
27822;SDS011;29019;47.630;8.262;2024-01-06T09:00:23;4.35;;;2.92;;
27822;SDS011;29019;47.630;8.262;2024-01-06T09:04:24;7.53;;;3.25;;
27822;SDS011;29019;47.630;8.262;2024-01-06T09:08:25;6.50;;;3.22;;
27822;SDS011;29019;47.630;8.262;2024-01-06T09:12:25;6.93;;;3.42;;
27822;SDS011;29019;47.630;8.262;2024-01-06T09:16:26;6.63;;;3.10;;
27822;SDS011;29019;47.630;8.262;2024-01-06T09:20:27;7.75;;;3.15;;
27822;SDS011;29019;47.630;8.262;2024-01-06T09:24:27;7.65;;;3.72;;
27822;SDS011;29019;47.630;8.262;2024-01-06T09:28:28;7.32;;;3.33;;
27822;SDS011;29019;47.630;8.262;2024-01-06T09:32:29;6.82;;;3.10;;
27822;SDS011;29019;47.630;8.262;2024-01-06T09:40:31;6.47;;;3.00;;
27822;SDS011;29019;47.630;8.262;2024-01-06T09:48:33;6.13;;;2.80;;
27822;SDS011;29019;47.630;8.262;2024-01-06T09:52:40;6.25;;;2.60;;
27822;SDS011;29019;47.630;8.262;2024-01-06T09:56:44;5.85;;;3.28;;
27822;SDS011;29019;47.630;8.262;2024-01-06T10:00:48;5.18;;;2.40;;
27822;SDS011;29019;47.630;8.262;2024-01-06T10:04:49;6.03;;;2.67;;
27822;SDS011;29019;47.630;8.262;2024-01-06T10:08:51;4.35;;;2.50;;
27822;SDS011;29019;47.630;8.262;2024-01-06T10:12:53;6.35;;;2.78;;
27822;SDS011;29019;47.630;8.262;2024-01-06T10:16:55;5.55;;;2.53;;
27822;SDS011;29019;47.630;8.262;2024-01-06T10:20:56;4.75;;;2.80;;
27822;SDS011;29019;47.630;8.262;2024-01-06T10:24:57;4.70;;;2.70;;
27822;SDS011;29019;47.630;8.262;2024-01-06T10:28:58;4.00;;;2.30;;
27822;SDS011;29019;47.630;8.262;2024-01-06T10:36:59;5.77;;;2.57;;
27822;SDS011;29019;47.630;8.262;2024-01-06T10:41:01;4.20;;;2.38;;
27822;SDS011;29019;47.630;8.262;2024-01-06T10:45:08;4.38;;;2.60;;
27822;SDS011;29019;47.630;8.262;2024-01-06T10:49:13;4.80;;;2.50;;
27822;SDS011;29019;47.630;8.262;2024-01-06T10:53:15;4.32;;;2.55;;
27822;SDS011;29019;47.630;8.262;2024-01-06T10:57:18;4.50;;;2.35;;
27822;SDS011;29019;47.630;8.262;2024-01-06T11:01:21;6.50;;;2.97;;
27822;SDS011;29019;47.630;8.262;2024-01-06T11:05:24;3.58;;;2.15;;
27822;SDS011;29019;47.630;8.262;2024-01-06T11:09:29;4.75;;;2.50;;
27822;SDS011;29019;47.630;8.262;2024-01-06T11:13:34;3.80;;;2.30;;
27822;SDS011;29019;47.630;8.262;2024-01-06T11:17:49;4.70;;;2.47;;
27822;SDS011;29019;47.630;8.262;2024-01-06T11:21:53;5.30;;;2.42;;
27822;SDS011;29019;47.630;8.262;2024-01-06T11:25:54;4.82;;;2.67;;
27822;SDS011;29019;47.630;8.262;2024-01-06T11:33:56;4.75;;;2.40;;
27822;SDS011;29019;47.630;8.262;2024-01-06T11:38:13;4.18;;;2.17;;
27822;SDS011;29019;47.630;8.262;2024-01-06T11:42:14;4.78;;;2.20;;
27822;SDS011;29019;47.630;8.262;2024-01-06T11:46:15;5.43;;;1.90;;
27822;SDS011;29019;47.630;8.262;2024-01-06T11:50:17;2.97;;;1.90;;
27822;SDS011;29019;47.630;8.262;2024-01-06T11:54:18;2.78;;;2.03;;
27822;SDS011;29019;47.630;8.262;2024-01-06T11:58:19;4.05;;;2.28;;
27822;SDS011;29019;47.630;8.262;2024-01-06T12:02:19;4.18;;;2.00;;
27822;SDS011;29019;47.630;8.262;2024-01-06T12:06:22;4.07;;;1.90;;
27822;SDS011;29019;47.630;8.262;2024-01-06T12:10:24;4.07;;;1.83;;
27822;SDS011;29019;47.630;8.262;2024-01-06T12:14:25;3.65;;;2.00;;
27822;SDS011;29019;47.630;8.262;2024-01-06T12:18:26;3.30;;;1.90;;
27822;SDS011;29019;47.630;8.262;2024-01-06T12:22:26;2.35;;;1.63;;
27822;SDS011;29019;47.630;8.262;2024-01-06T12:26:28;3.95;;;1.83;;
27822;SDS011;29019;47.630;8.262;2024-01-06T12:30:29;3.35;;;1.73;;
27822;SDS011;29019;47.630;8.262;2024-01-06T12:34:31;3.70;;;2.22;;
27822;SDS011;29019;47.630;8.262;2024-01-06T12:38:32;2.97;;;1.58;;
27822;SDS011;29019;47.630;8.262;2024-01-06T12:42:33;3.53;;;1.98;;
27822;SDS011;29019;47.630;8.262;2024-01-06T12:46:34;3.08;;;1.95;;
27822;SDS011;29019;47.630;8.262;2024-01-06T12:50:35;3.63;;;1.75;;
27822;SDS011;29019;47.630;8.262;2024-01-06T12:54:36;3.83;;;1.85;;
27822;SDS011;29019;47.630;8.262;2024-01-06T12:58:37;3.15;;;1.88;;
27822;SDS011;29019;47.630;8.262;2024-01-06T13:02:37;2.72;;;1.83;;
27822;SDS011;29019;47.630;8.262;2024-01-06T13:06:38;1.45;;;1.33;;
27822;SDS011;29019;47.630;8.262;2024-01-06T13:10:40;2.75;;;1.50;;
27822;SDS011;29019;47.630;8.262;2024-01-06T13:14:41;8.93;;;2.15;;
27822;SDS011;29019;47.630;8.262;2024-01-06T13:18:44;3.70;;;2.40;;
27822;SDS011;29019;47.630;8.262;2024-01-06T13:22:45;5.82;;;2.40;;
27822;SDS011;29019;47.630;8.262;2024-01-06T13:26:45;2.65;;;2.10;;
27822;SDS011;29019;47.630;8.262;2024-01-06T13:30:46;4.30;;;2.38;;
27822;SDS011;29019;47.630;8.262;2024-01-06T13:34:47;4.15;;;2.22;;
27822;SDS011;29019;47.630;8.262;2024-01-06T13:38:48;3.65;;;2.08;;
27822;SDS011;29019;47.630;8.262;2024-01-06T13:42:49;6.47;;;2.63;;
27822;SDS011;29019;47.630;8.262;2024-01-06T13:46:50;4.63;;;3.00;;
27822;SDS011;29019;47.630;8.262;2024-01-06T13:50:51;5.60;;;2.72;;
27822;SDS011;29019;47.630;8.262;2024-01-06T13:54:52;4.53;;;2.30;;
27822;SDS011;29019;47.630;8.262;2024-01-06T13:58:53;5.78;;;2.40;;
27822;SDS011;29019;47.630;8.262;2024-01-06T14:02:53;5.00;;;2.65;;
27822;SDS011;29019;47.630;8.262;2024-01-06T14:11:45;5.90;;;2.50;;
27822;SDS011;29019;47.630;8.262;2024-01-06T14:15:46;4.50;;;2.08;;
27822;SDS011;29019;47.630;8.262;2024-01-06T14:19:47;4.18;;;2.13;;
27822;SDS011;29019;47.630;8.262;2024-01-06T14:23:47;3.40;;;1.92;;
27822;SDS011;29019;47.630;8.262;2024-01-06T14:27:49;6.72;;;1.83;;
27822;SDS011;29019;47.630;8.262;2024-01-06T14:31:50;3.47;;;2.25;;
27822;SDS011;29019;47.630;8.262;2024-01-06T14:35:52;5.25;;;2.00;;
27822;SDS011;29019;47.630;8.262;2024-01-06T14:43:54;9.83;;;1.70;;
27822;SDS011;29019;47.630;8.262;2024-01-06T14:47:54;5.32;;;1.92;;
27822;SDS011;29019;47.630;8.262;2024-01-06T14:51:55;4.43;;;1.70;;
27822;SDS011;29019;47.630;8.262;2024-01-06T14:55:56;4.20;;;1.67;;
27822;SDS011;29019;47.630;8.262;2024-01-06T14:59:56;3.05;;;1.70;;
27822;SDS011;29019;47.630;8.262;2024-01-06T15:03:57;7.63;;;1.67;;
27822;SDS011;29019;47.630;8.262;2024-01-06T15:07:58;4.20;;;2.13;;
27822;SDS011;29019;47.630;8.262;2024-01-06T15:11:59;5.70;;;1.70;;
27822;SDS011;29019;47.630;8.262;2024-01-06T15:15:59;4.40;;;1.40;;
27822;SDS011;29019;47.630;8.262;2024-01-06T15:20:00;11.20;;;2.00;;
27822;SDS011;29019;47.630;8.262;2024-01-06T15:24:01;6.78;;;1.95;;
27822;SDS011;29019;47.630;8.262;2024-01-06T15:28:02;12.93;;;2.30;;
27822;SDS011;29019;47.630;8.262;2024-01-06T15:32:03;7.68;;;2.33;;
27822;SDS011;29019;47.630;8.262;2024-01-06T15:36:04;7.95;;;2.22;;
27822;SDS011;29019;47.630;8.262;2024-01-06T15:40:05;11.02;;;3.05;;
27822;SDS011;29019;47.630;8.262;2024-01-06T15:44:07;8.90;;;2.10;;
27822;SDS011;29019;47.630;8.262;2024-01-06T15:48:08;14.02;;;2.33;;
27822;SDS011;29019;47.630;8.262;2024-01-06T15:52:08;13.32;;;1.77;;
27822;SDS011;29019;47.630;8.262;2024-01-06T15:56:09;8.20;;;1.75;;
27822;SDS011;29019;47.630;8.262;2024-01-06T16:00:10;14.75;;;2.10;;
27822;SDS011;29019;47.630;8.262;2024-01-06T16:04:11;13.55;;;4.10;;
27822;SDS011;29019;47.630;8.262;2024-01-06T16:08:12;69.53;;;28.45;;
27822;SDS011;29019;47.630;8.262;2024-01-06T16:12:13;87.60;;;36.80;;
27822;SDS011;29019;47.630;8.262;2024-01-06T16:16:15;115.85;;;42.83;;
27822;SDS011;29019;47.630;8.262;2024-01-06T16:20:16;178.88;;;80.60;;
27822;SDS011;29019;47.630;8.262;2024-01-06T16:24:17;586.28;;;252.85;;
27822;SDS011;29019;47.630;8.262;2024-01-06T16:28:18;671.85;;;298.42;;
27822;SDS011;29019;47.630;8.262;2024-01-06T16:32:21;623.95;;;274.73;;
27822;SDS011;29019;47.630;8.262;2024-01-06T16:36:22;576.30;;;251.82;;
27822;SDS011;29019;47.630;8.262;2024-01-06T16:40:23;523.83;;;226.52;;
27822;SDS011;29019;47.630;8.262;2024-01-06T16:44:24;522.30;;;211.80;;
27822;SDS011;29019;47.630;8.262;2024-01-06T16:48:24;451.83;;;180.27;;
27822;SDS011;29019;47.630;8.262;2024-01-06T16:52:25;430.00;;;169.18;;
27822;SDS011;29019;47.630;8.262;2024-01-06T16:56:26;398.98;;;160.05;;
27822;SDS011;29019;47.630;8.262;2024-01-06T17:00:27;362.48;;;144.43;;
27822;SDS011;29019;47.630;8.262;2024-01-06T17:04:28;308.27;;;125.78;;
27822;SDS011;29019;47.630;8.262;2024-01-06T17:08:30;260.02;;;111.78;;
27822;SDS011;29019;47.630;8.262;2024-01-06T17:12:30;266.58;;;108.13;;
27822;SDS011;29019;47.630;8.262;2024-01-06T17:16:31;259.50;;;106.32;;
27822;SDS011;29019;47.630;8.262;2024-01-06T17:20:31;248.85;;;103.32;;
27822;SDS011;29019;47.630;8.262;2024-01-06T17:24:37;238.10;;;101.63;;
27822;SDS011;29019;47.630;8.262;2024-01-06T17:28:38;226.23;;;97.35;;
27822;SDS011;29019;47.630;8.262;2024-01-06T17:32:39;230.45;;;96.63;;
27822;SDS011;29019;47.630;8.262;2024-01-06T17:40:40;228.13;;;92.27;;
27822;SDS011;29019;47.630;8.262;2024-01-06T17:44:41;206.02;;;90.15;;
27822;SDS011;29019;47.630;8.262;2024-01-06T17:48:44;205.93;;;90.07;;
27822;SDS011;29019;47.630;8.262;2024-01-06T17:52:45;202.80;;;89.30;;
27822;SDS011;29019;47.630;8.262;2024-01-06T17:56:46;191.82;;;86.65;;
27822;SDS011;29019;47.630;8.262;2024-01-06T18:00:46;203.27;;;86.03;;
27822;SDS011;29019;47.630;8.262;2024-01-06T18:04:47;202.48;;;87.00;;
27822;SDS011;29019;47.630;8.262;2024-01-06T18:08:48;201.95;;;83.90;;
27822;SDS011;29019;47.630;8.262;2024-01-06T18:12:48;181.98;;;82.45;;
27822;SDS011;29019;47.630;8.262;2024-01-06T18:16:51;193.32;;;81.15;;
27822;SDS011;29019;47.630;8.262;2024-01-06T18:20:51;178.00;;;79.28;;
27822;SDS011;29019;47.630;8.262;2024-01-06T18:24:52;174.32;;;74.93;;
27822;SDS011;29019;47.630;8.262;2024-01-06T18:28:53;167.73;;;74.22;;
27822;SDS011;29019;47.630;8.262;2024-01-06T18:32:54;166.13;;;73.00;;
27822;SDS011;29019;47.630;8.262;2024-01-06T18:36:56;158.68;;;72.38;;
27822;SDS011;29019;47.630;8.262;2024-01-06T18:40:56;160.98;;;70.10;;
27822;SDS011;29019;47.630;8.262;2024-01-06T18:44:58;153.80;;;68.90;;
27822;SDS011;29019;47.630;8.262;2024-01-06T18:49:00;157.15;;;67.45;;
27822;SDS011;29019;47.630;8.262;2024-01-06T18:53:01;149.43;;;66.75;;
27822;SDS011;29019;47.630;8.262;2024-01-06T18:57:01;150.52;;;68.18;;
27822;SDS011;29019;47.630;8.262;2024-01-06T19:01:02;145.73;;;65.97;;
27822;SDS011;29019;47.630;8.262;2024-01-06T19:05:04;148.30;;;65.82;;
27822;SDS011;29019;47.630;8.262;2024-01-06T19:09:04;135.65;;;63.00;;
27822;SDS011;29019;47.630;8.262;2024-01-06T19:13:07;142.75;;;60.65;;
27822;SDS011;29019;47.630;8.262;2024-01-06T19:17:09;132.93;;;61.33;;
27822;SDS011;29019;47.630;8.262;2024-01-06T19:21:12;137.90;;;58.42;;
27822;SDS011;29019;47.630;8.262;2024-01-06T19:25:13;134.60;;;62.50;;
27822;SDS011;29019;47.630;8.262;2024-01-06T19:33:15;135.00;;;59.03;;
27822;SDS011;29019;47.630;8.262;2024-01-06T19:37:16;128.38;;;55.83;;
27822;SDS011;29019;47.630;8.262;2024-01-06T19:41:16;128.73;;;58.65;;
27822;SDS011;29019;47.630;8.262;2024-01-06T19:45:17;120.05;;;55.00;;
27822;SDS011;29019;47.630;8.262;2024-01-06T19:49:18;113.10;;;55.25;;
27822;SDS011;29019;47.630;8.262;2024-01-06T19:53:19;117.22;;;55.35;;
27822;SDS011;29019;47.630;8.262;2024-01-06T19:57:19;107.50;;;53.25;;
27822;SDS011;29019;47.630;8.262;2024-01-06T20:01:20;111.50;;;55.85;;
27822;SDS011;29019;47.630;8.262;2024-01-06T20:05:21;106.47;;;52.15;;
27822;SDS011;29019;47.630;8.262;2024-01-06T20:09:22;101.47;;;49.72;;
27822;SDS011;29019;47.630;8.262;2024-01-06T20:13:22;110.00;;;52.25;;
27822;SDS011;29019;47.630;8.262;2024-01-06T20:17:23;105.95;;;51.13;;
27822;SDS011;29019;47.630;8.262;2024-01-06T20:21:24;106.00;;;47.45;;
27822;SDS011;29019;47.630;8.262;2024-01-06T20:25:25;111.68;;;48.65;;
27822;SDS011;29019;47.630;8.262;2024-01-06T20:29:26;107.50;;;49.45;;
27822;SDS011;29019;47.630;8.262;2024-01-06T20:33:27;94.85;;;46.92;;
27822;SDS011;29019;47.630;8.262;2024-01-06T20:37:32;105.32;;;50.17;;
27822;SDS011;29019;47.630;8.262;2024-01-06T20:41:33;98.80;;;46.55;;
27822;SDS011;29019;47.630;8.262;2024-01-06T20:45:34;94.20;;;46.20;;
27822;SDS011;29019;47.630;8.262;2024-01-06T20:49:34;87.07;;;44.70;;
27822;SDS011;29019;47.630;8.262;2024-01-06T20:53:35;95.28;;;46.13;;
27822;SDS011;29019;47.630;8.262;2024-01-06T20:57:36;96.63;;;45.30;;
27822;SDS011;29019;47.630;8.262;2024-01-06T21:01:37;93.10;;;45.03;;
27822;SDS011;29019;47.630;8.262;2024-01-06T21:05:38;81.75;;;42.85;;
27822;SDS011;29019;47.630;8.262;2024-01-06T21:09:41;82.78;;;43.15;;
27822;SDS011;29019;47.630;8.262;2024-01-06T21:13:41;92.78;;;44.03;;
27822;SDS011;29019;47.630;8.262;2024-01-06T21:17:42;85.32;;;42.78;;
27822;SDS011;29019;47.630;8.262;2024-01-06T21:21:43;89.68;;;42.42;;
27822;SDS011;29019;47.630;8.262;2024-01-06T21:29:45;96.73;;;44.80;;
27822;SDS011;29019;47.630;8.262;2024-01-06T21:33:45;84.63;;;42.40;;
27822;SDS011;29019;47.630;8.262;2024-01-06T21:37:48;91.13;;;43.08;;
27822;SDS011;29019;47.630;8.262;2024-01-06T21:41:48;94.03;;;42.63;;
27822;SDS011;29019;47.630;8.262;2024-01-06T21:45:49;92.38;;;44.13;;
27822;SDS011;29019;47.630;8.262;2024-01-06T21:49:51;91.75;;;43.88;;
27822;SDS011;29019;47.630;8.262;2024-01-06T21:53:52;86.93;;;45.42;;
27822;SDS011;29019;47.630;8.262;2024-01-06T21:57:53;91.47;;;43.15;;
27822;SDS011;29019;47.630;8.262;2024-01-06T22:05:55;88.40;;;42.07;;
27822;SDS011;29019;47.630;8.262;2024-01-06T22:09:56;91.78;;;44.60;;
27822;SDS011;29019;47.630;8.262;2024-01-06T22:13:56;92.90;;;41.53;;
27822;SDS011;29019;47.630;8.262;2024-01-06T22:17:57;97.95;;;44.78;;
27822;SDS011;29019;47.630;8.262;2024-01-06T22:21:58;92.20;;;43.15;;
27822;SDS011;29019;47.630;8.262;2024-01-06T22:25:59;90.38;;;42.55;;
27822;SDS011;29019;47.630;8.262;2024-01-06T22:29:59;84.53;;;41.20;;
27822;SDS011;29019;47.630;8.262;2024-01-06T22:34:00;91.13;;;42.55;;
27822;SDS011;29019;47.630;8.262;2024-01-06T22:38:01;83.30;;;42.45;;
27822;SDS011;29019;47.630;8.262;2024-01-06T22:42:02;82.82;;;40.72;;
27822;SDS011;29019;47.630;8.262;2024-01-06T22:46:02;82.93;;;40.63;;
27822;SDS011;29019;47.630;8.262;2024-01-06T22:50:06;85.03;;;40.05;;
27822;SDS011;29019;47.630;8.262;2024-01-06T22:58:08;87.75;;;39.97;;
27822;SDS011;29019;47.630;8.262;2024-01-06T23:02:09;80.93;;;38.20;;
27822;SDS011;29019;47.630;8.262;2024-01-06T23:06:09;76.85;;;38.05;;
27822;SDS011;29019;47.630;8.262;2024-01-06T23:10:10;85.78;;;38.13;;
27822;SDS011;29019;47.630;8.262;2024-01-06T23:14:12;82.40;;;39.25;;
27822;SDS011;29019;47.630;8.262;2024-01-06T23:18:12;80.35;;;36.45;;
27822;SDS011;29019;47.630;8.262;2024-01-06T23:22:13;80.90;;;37.38;;
27822;SDS011;29019;47.630;8.262;2024-01-06T23:26:14;75.05;;;36.08;;
27822;SDS011;29019;47.630;8.262;2024-01-06T23:30:15;79.60;;;37.40;;
27822;SDS011;29019;47.630;8.262;2024-01-06T23:34:15;85.72;;;42.92;;
27822;SDS011;29019;47.630;8.262;2024-01-06T23:38:16;78.22;;;36.65;;
27822;SDS011;29019;47.630;8.262;2024-01-06T23:42:17;70.75;;;34.53;;
27822;SDS011;29019;47.630;8.262;2024-01-06T23:46:19;71.47;;;34.25;;
27822;SDS011;29019;47.630;8.262;2024-01-06T23:50:24;68.57;;;34.97;;
27822;SDS011;29019;47.630;8.262;2024-01-06T23:54:24;67.82;;;33.17;;
27822;SDS011;29019;47.630;8.262;2024-01-06T23:58:25;71.07;;;35.30;;
